sensor_id;sensor_type;location;lat;lon;timestamp;P1;durP1;ratioP1;P2;durP2;ratioP2
35380;SDS011;21486;51.916;8.378;2022-09-09T00:04:25;4.28;;;1.08;;
35380;SDS011;21486;51.916;8.378;2022-09-09T00:06:59;6.72;;;1.38;;
35380;SDS011;21486;51.916;8.378;2022-09-09T00:09:28;5.25;;;1.42;;
35380;SDS011;21486;51.916;8.378;2022-09-09T00:12:00;2.15;;;1.00;;
35380;SDS011;21486;51.916;8.378;2022-09-09T00:17:01;3.10;;;1.20;;
35380;SDS011;21486;51.916;8.378;2022-09-09T00:19:32;4.05;;;1.15;;
35380;SDS011;21486;51.916;8.378;2022-09-09T00:22:14;6.65;;;1.50;;
35380;SDS011;21486;51.916;8.378;2022-09-09T00:29:53;3.95;;;1.25;;
35380;SDS011;21486;51.916;8.378;2022-09-09T00:32:19;3.65;;;1.45;;
35380;SDS011;21486;51.916;8.378;2022-09-09T00:34:49;2.28;;;1.17;;
35380;SDS011;21486;51.916;8.378;2022-09-09T00:37:17;4.43;;;1.73;;
35380;SDS011;21486;51.916;8.378;2022-09-09T00:57:03;4.68;;;1.58;;
35380;SDS011;21486;51.916;8.378;2022-09-09T01:02:28;5.13;;;1.30;;
35380;SDS011;21486;51.916;8.378;2022-09-09T01:04:57;5.30;;;1.52;;
35380;SDS011;21486;51.916;8.378;2022-09-09T01:07:26;4.60;;;1.30;;
35380;SDS011;21486;51.916;8.378;2022-09-09T01:09:56;5.32;;;1.90;;
35380;SDS011;21486;51.916;8.378;2022-09-09T01:12:28;5.20;;;1.60;;
35380;SDS011;21486;51.916;8.378;2022-09-09T01:15:12;3.83;;;1.25;;
35380;SDS011;21486;51.916;8.378;2022-09-09T01:17:56;5.13;;;1.40;;
35380;SDS011;21486;51.916;8.378;2022-09-09T01:20:25;4.35;;;1.25;;
35380;SDS011;21486;51.916;8.378;2022-09-09T01:28:22;3.70;;;1.23;;
35380;SDS011;21486;51.916;8.378;2022-09-09T01:30:51;5.00;;;1.70;;
35380;SDS011;21486;51.916;8.378;2022-09-09T01:33:17;4.93;;;1.88;;
35380;SDS011;21486;51.916;8.378;2022-09-09T01:38:09;4.55;;;1.42;;
35380;SDS011;21486;51.916;8.378;2022-09-09T01:40:35;6.85;;;1.27;;
35380;SDS011;21486;51.916;8.378;2022-09-09T01:43:02;6.80;;;1.40;;
35380;SDS011;21486;51.916;8.378;2022-09-09T01:45:28;6.15;;;1.60;;
35380;SDS011;21486;51.916;8.378;2022-09-09T01:47:54;7.28;;;1.98;;
35380;SDS011;21486;51.916;8.378;2022-09-09T01:50:21;4.00;;;1.40;;
35380;SDS011;21486;51.916;8.378;2022-09-09T01:52:48;5.15;;;1.80;;
35380;SDS011;21486;51.916;8.378;2022-09-09T01:55:15;8.82;;;1.40;;
35380;SDS011;21486;51.916;8.378;2022-09-09T01:57:48;4.72;;;1.30;;
35380;SDS011;21486;51.916;8.378;2022-09-09T02:00:15;3.72;;;1.63;;
35380;SDS011;21486;51.916;8.378;2022-09-09T02:07:59;3.45;;;1.20;;
35380;SDS011;21486;51.916;8.378;2022-09-09T02:10:33;4.88;;;1.20;;
35380;SDS011;21486;51.916;8.378;2022-09-09T02:13:03;7.20;;;1.27;;
35380;SDS011;21486;51.916;8.378;2022-09-09T02:15:32;2.95;;;1.20;;
35380;SDS011;21486;51.916;8.378;2022-09-09T02:17:59;2.47;;;1.25;;
35380;SDS011;21486;51.916;8.378;2022-09-09T02:20:27;2.25;;;1.20;;
35380;SDS011;21486;51.916;8.378;2022-09-09T02:22:57;3.22;;;1.02;;
35380;SDS011;21486;51.916;8.378;2022-09-09T02:25:24;5.93;;;1.23;;
35380;SDS011;21486;51.916;8.378;2022-09-09T02:27:51;4.25;;;1.13;;
35380;SDS011;21486;51.916;8.378;2022-09-09T02:30:18;1.98;;;1.13;;
35380;SDS011;21486;51.916;8.378;2022-09-09T02:32:45;10.20;;;1.35;;
35380;SDS011;21486;51.916;8.378;2022-09-09T02:35:12;5.47;;;1.23;;
35380;SDS011;21486;51.916;8.378;2022-09-09T02:37:39;3.13;;;1.58;;
35380;SDS011;21486;51.916;8.378;2022-09-09T02:40:07;5.10;;;1.60;;
35380;SDS011;21486;51.916;8.378;2022-09-09T02:42:41;4.55;;;1.70;;
35380;SDS011;21486;51.916;8.378;2022-09-09T02:45:08;6.15;;;2.20;;
35380;SDS011;21486;51.916;8.378;2022-09-09T02:47:35;4.63;;;1.70;;
35380;SDS011;21486;51.916;8.378;2022-09-09T02:55:12;5.55;;;1.60;;
35380;SDS011;21486;51.916;8.378;2022-09-09T02:57:40;7.40;;;1.77;;
35380;SDS011;21486;51.916;8.378;2022-09-09T03:00:08;4.90;;;1.95;;
35380;SDS011;21486;51.916;8.378;2022-09-09T03:02:36;5.65;;;1.63;;
35380;SDS011;21486;51.916;8.378;2022-09-09T03:05:02;7.18;;;1.77;;
35380;SDS011;21486;51.916;8.378;2022-09-09T03:07:28;5.57;;;1.85;;
35380;SDS011;21486;51.916;8.378;2022-09-09T03:09:54;10.15;;;1.88;;
35380;SDS011;21486;51.916;8.378;2022-09-09T03:12:20;6.32;;;2.63;;
35380;SDS011;21486;51.916;8.378;2022-09-09T03:14:46;7.65;;;1.92;;
35380;SDS011;21486;51.916;8.378;2022-09-09T03:17:12;3.20;;;2.30;;
35380;SDS011;21486;51.916;8.378;2022-09-09T03:19:38;5.55;;;1.60;;
35380;SDS011;21486;51.916;8.378;2022-09-09T03:22:04;6.13;;;2.13;;
35380;SDS011;21486;51.916;8.378;2022-09-09T03:24:30;7.43;;;1.88;;
35380;SDS011;21486;51.916;8.378;2022-09-09T03:26:57;6.75;;;2.08;;
35380;SDS011;21486;51.916;8.378;2022-09-09T03:29:22;6.35;;;1.67;;
35380;SDS011;21486;51.916;8.378;2022-09-09T03:31:48;5.60;;;1.98;;
35380;SDS011;21486;51.916;8.378;2022-09-09T03:34:16;6.80;;;2.25;;
35380;SDS011;21486;51.916;8.378;2022-09-09T03:36:42;9.18;;;1.73;;
35380;SDS011;21486;51.916;8.378;2022-09-09T03:39:08;4.18;;;1.67;;
35380;SDS011;21486;51.916;8.378;2022-09-09T03:41:33;4.57;;;2.08;;
35380;SDS011;21486;51.916;8.378;2022-09-09T03:43:59;5.57;;;2.05;;
35380;SDS011;21486;51.916;8.378;2022-09-09T03:46:25;6.03;;;1.55;;
35380;SDS011;21486;51.916;8.378;2022-09-09T03:48:51;5.50;;;2.28;;
35380;SDS011;21486;51.916;8.378;2022-09-09T03:51:17;6.22;;;1.65;;
35380;SDS011;21486;51.916;8.378;2022-09-09T03:53:43;5.60;;;2.20;;
35380;SDS011;21486;51.916;8.378;2022-09-09T03:56:09;8.38;;;1.83;;
35380;SDS011;21486;51.916;8.378;2022-09-09T03:58:36;4.22;;;1.90;;
35380;SDS011;21486;51.916;8.378;2022-09-09T04:01:04;5.65;;;2.10;;
35380;SDS011;21486;51.916;8.378;2022-09-09T04:03:30;11.73;;;2.22;;
35380;SDS011;21486;51.916;8.378;2022-09-09T04:05:57;5.10;;;2.22;;
35380;SDS011;21486;51.916;8.378;2022-09-09T04:08:23;7.30;;;2.63;;
35380;SDS011;21486;51.916;8.378;2022-09-09T04:10:53;9.85;;;2.33;;
35380;SDS011;21486;51.916;8.378;2022-09-09T04:20:40;6.07;;;2.17;;
35380;SDS011;21486;51.916;8.378;2022-09-09T04:23:08;8.63;;;2.63;;
35380;SDS011;21486;51.916;8.378;2022-09-09T04:25:34;5.38;;;2.60;;
35380;SDS011;21486;51.916;8.378;2022-09-09T04:28:00;9.30;;;2.55;;
35380;SDS011;21486;51.916;8.378;2022-09-09T04:30:27;10.15;;;2.75;;
35380;SDS011;21486;51.916;8.378;2022-09-09T04:32:53;10.40;;;3.72;;
35380;SDS011;21486;51.916;8.378;2022-09-09T04:35:19;5.50;;;2.92;;
35380;SDS011;21486;51.916;8.378;2022-09-09T04:37:45;7.60;;;3.23;;
35380;SDS011;21486;51.916;8.378;2022-09-09T04:40:11;10.82;;;3.25;;
35380;SDS011;21486;51.916;8.378;2022-09-09T04:42:37;8.60;;;2.88;;
35380;SDS011;21486;51.916;8.378;2022-09-09T04:45:04;7.65;;;2.70;;
35380;SDS011;21486;51.916;8.378;2022-09-09T04:47:30;9.82;;;2.80;;
35380;SDS011;21486;51.916;8.378;2022-09-09T04:49:56;9.60;;;2.65;;
35380;SDS011;21486;51.916;8.378;2022-09-09T04:52:22;12.00;;;3.70;;
35380;SDS011;21486;51.916;8.378;2022-09-09T04:54:48;12.82;;;2.50;;
35380;SDS011;21486;51.916;8.378;2022-09-09T04:57:14;13.48;;;2.90;;
35380;SDS011;21486;51.916;8.378;2022-09-09T04:59:40;7.28;;;2.60;;
35380;SDS011;21486;51.916;8.378;2022-09-09T05:02:06;10.77;;;3.08;;
35380;SDS011;21486;51.916;8.378;2022-09-09T05:04:32;6.50;;;2.63;;
35380;SDS011;21486;51.916;8.378;2022-09-09T05:06:58;10.20;;;3.30;;
35380;SDS011;21486;51.916;8.378;2022-09-09T05:09:24;7.70;;;2.97;;
35380;SDS011;21486;51.916;8.378;2022-09-09T05:11:50;9.63;;;3.15;;
35380;SDS011;21486;51.916;8.378;2022-09-09T05:14:16;9.07;;;4.00;;
35380;SDS011;21486;51.916;8.378;2022-09-09T05:16:44;7.53;;;3.33;;
35380;SDS011;21486;51.916;8.378;2022-09-09T05:19:10;10.80;;;3.10;;
35380;SDS011;21486;51.916;8.378;2022-09-09T05:21:36;5.47;;;2.85;;
35380;SDS011;21486;51.916;8.378;2022-09-09T05:24:02;9.90;;;3.15;;
35380;SDS011;21486;51.916;8.378;2022-09-09T05:26:28;15.23;;;6.15;;
35380;SDS011;21486;51.916;8.378;2022-09-09T05:28:54;8.45;;;2.92;;
35380;SDS011;21486;51.916;8.378;2022-09-09T05:31:20;8.43;;;2.78;;
35380;SDS011;21486;51.916;8.378;2022-09-09T05:33:47;11.18;;;3.95;;
35380;SDS011;21486;51.916;8.378;2022-09-09T05:36:18;5.47;;;2.50;;
35380;SDS011;21486;51.916;8.378;2022-09-09T05:38:44;13.40;;;3.15;;
35380;SDS011;21486;51.916;8.378;2022-09-09T05:41:11;7.50;;;2.70;;
35380;SDS011;21486;51.916;8.378;2022-09-09T05:43:37;10.30;;;2.97;;
35380;SDS011;21486;51.916;8.378;2022-09-09T05:46:04;5.57;;;2.65;;
35380;SDS011;21486;51.916;8.378;2022-09-09T05:48:31;9.10;;;3.67;;
35380;SDS011;21486;51.916;8.378;2022-09-09T05:50:57;6.95;;;3.20;;
35380;SDS011;21486;51.916;8.378;2022-09-09T05:53:24;13.70;;;2.78;;
35380;SDS011;21486;51.916;8.378;2022-09-09T05:55:50;4.55;;;2.35;;
35380;SDS011;21486;51.916;8.378;2022-09-09T05:58:16;14.07;;;2.78;;
35380;SDS011;21486;51.916;8.378;2022-09-09T06:00:42;10.70;;;3.38;;
35380;SDS011;21486;51.916;8.378;2022-09-09T06:03:10;6.80;;;2.88;;
35380;SDS011;21486;51.916;8.378;2022-09-09T06:05:36;8.38;;;2.80;;
35380;SDS011;21486;51.916;8.378;2022-09-09T06:08:02;6.47;;;2.72;;
35380;SDS011;21486;51.916;8.378;2022-09-09T06:10:28;9.63;;;2.80;;
35380;SDS011;21486;51.916;8.378;2022-09-09T06:12:54;8.57;;;2.60;;
35380;SDS011;21486;51.916;8.378;2022-09-09T06:15:20;9.95;;;2.72;;
35380;SDS011;21486;51.916;8.378;2022-09-09T06:17:46;10.93;;;2.85;;
35380;SDS011;21486;51.916;8.378;2022-09-09T06:20:14;9.68;;;2.70;;
35380;SDS011;21486;51.916;8.378;2022-09-09T06:22:40;7.45;;;2.50;;
35380;SDS011;21486;51.916;8.378;2022-09-09T06:25:07;5.43;;;2.30;;
35380;SDS011;21486;51.916;8.378;2022-09-09T06:27:33;7.43;;;2.45;;
35380;SDS011;21486;51.916;8.378;2022-09-09T06:29:59;4.78;;;1.90;;
35380;SDS011;21486;51.916;8.378;2022-09-09T06:32:25;7.65;;;2.42;;
35380;SDS011;21486;51.916;8.378;2022-09-09T06:34:51;2.97;;;1.83;;
35380;SDS011;21486;51.916;8.378;2022-09-09T06:37:17;7.95;;;2.17;;
35380;SDS011;21486;51.916;8.378;2022-09-09T06:39:43;9.68;;;3.00;;
35380;SDS011;21486;51.916;8.378;2022-09-09T06:42:09;6.40;;;2.67;;
35380;SDS011;21486;51.916;8.378;2022-09-09T06:44:35;6.18;;;1.92;;
35380;SDS011;21486;51.916;8.378;2022-09-09T06:47:01;8.25;;;2.05;;
35380;SDS011;21486;51.916;8.378;2022-09-09T06:49:28;8.57;;;2.80;;
35380;SDS011;21486;51.916;8.378;2022-09-09T06:51:54;6.90;;;2.22;;
35380;SDS011;21486;51.916;8.378;2022-09-09T06:54:20;6.10;;;1.83;;
35380;SDS011;21486;51.916;8.378;2022-09-09T06:56:47;7.57;;;2.47;;
35380;SDS011;21486;51.916;8.378;2022-09-09T06:59:14;6.13;;;2.03;;
35380;SDS011;21486;51.916;8.378;2022-09-09T07:01:41;12.38;;;2.30;;
35380;SDS011;21486;51.916;8.378;2022-09-09T07:04:08;8.43;;;2.20;;
35380;SDS011;21486;51.916;8.378;2022-09-09T07:06:39;7.30;;;1.95;;
35380;SDS011;21486;51.916;8.378;2022-09-09T07:09:07;10.60;;;2.20;;
35380;SDS011;21486;51.916;8.378;2022-09-09T07:11:43;9.10;;;2.63;;
35380;SDS011;21486;51.916;8.378;2022-09-09T07:14:09;11.70;;;2.45;;
35380;SDS011;21486;51.916;8.378;2022-09-09T07:16:39;14.85;;;2.20;;
35380;SDS011;21486;51.916;8.378;2022-09-09T07:19:05;14.02;;;2.10;;
35380;SDS011;21486;51.916;8.378;2022-09-09T07:21:31;5.40;;;1.90;;
35380;SDS011;21486;51.916;8.378;2022-09-09T07:23:58;6.78;;;2.65;;
35380;SDS011;21486;51.916;8.378;2022-09-09T07:26:25;12.50;;;2.50;;
35380;SDS011;21486;51.916;8.378;2022-09-09T07:28:51;8.15;;;2.53;;
35380;SDS011;21486;51.916;8.378;2022-09-09T07:31:21;12.30;;;2.10;;
35380;SDS011;21486;51.916;8.378;2022-09-09T07:33:47;5.97;;;1.60;;
35380;SDS011;21486;51.916;8.378;2022-09-09T07:36:17;8.85;;;1.98;;
35380;SDS011;21486;51.916;8.378;2022-09-09T07:38:46;6.85;;;1.70;;
35380;SDS011;21486;51.916;8.378;2022-09-09T07:41:14;9.65;;;1.83;;
35380;SDS011;21486;51.916;8.378;2022-09-09T07:43:42;9.15;;;2.05;;
35380;SDS011;21486;51.916;8.378;2022-09-09T07:46:10;7.80;;;1.85;;
35380;SDS011;21486;51.916;8.378;2022-09-09T07:48:37;7.45;;;2.00;;
35380;SDS011;21486;51.916;8.378;2022-09-09T07:51:10;8.63;;;1.90;;
35380;SDS011;21486;51.916;8.378;2022-09-09T07:53:37;6.40;;;1.65;;
35380;SDS011;21486;51.916;8.378;2022-09-09T07:56:06;9.40;;;1.50;;
35380;SDS011;21486;51.916;8.378;2022-09-09T07:58:32;5.35;;;1.67;;
35380;SDS011;21486;51.916;8.378;2022-09-09T08:00:59;9.10;;;1.98;;
35380;SDS011;21486;51.916;8.378;2022-09-09T08:03:25;7.13;;;1.58;;
35380;SDS011;21486;51.916;8.378;2022-09-09T08:05:51;5.28;;;1.45;;
35380;SDS011;21486;51.916;8.378;2022-09-09T08:08:17;6.38;;;1.40;;
35380;SDS011;21486;51.916;8.378;2022-09-09T08:10:44;9.38;;;2.03;;
35380;SDS011;21486;51.916;8.378;2022-09-09T08:13:10;7.63;;;1.77;;
35380;SDS011;21486;51.916;8.378;2022-09-09T08:15:36;6.40;;;1.42;;
35380;SDS011;21486;51.916;8.378;2022-09-09T08:18:11;7.05;;;1.38;;
35380;SDS011;21486;51.916;8.378;2022-09-09T08:20:37;5.30;;;1.33;;
35380;SDS011;21486;51.916;8.378;2022-09-09T08:23:03;4.20;;;1.00;;
35380;SDS011;21486;51.916;8.378;2022-09-09T08:25:29;9.93;;;1.65;;
35380;SDS011;21486;51.916;8.378;2022-09-09T08:27:55;7.28;;;1.15;;
35380;SDS011;21486;51.916;8.378;2022-09-09T08:30:21;6.40;;;1.48;;
35380;SDS011;21486;51.916;8.378;2022-09-09T08:32:48;7.15;;;1.20;;
35380;SDS011;21486;51.916;8.378;2022-09-09T08:35:16;4.88;;;1.30;;
35380;SDS011;21486;51.916;8.378;2022-09-09T08:37:42;10.57;;;2.00;;
35380;SDS011;21486;51.916;8.378;2022-09-09T08:40:09;7.10;;;1.25;;
35380;SDS011;21486;51.916;8.378;2022-09-09T08:42:43;5.43;;;1.25;;
35380;SDS011;21486;51.916;8.378;2022-09-09T08:52:54;6.10;;;1.52;;
35380;SDS011;21486;51.916;8.378;2022-09-09T08:55:24;7.57;;;1.48;;
35380;SDS011;21486;51.916;8.378;2022-09-09T08:57:51;5.60;;;1.20;;
35380;SDS011;21486;51.916;8.378;2022-09-09T09:00:18;3.88;;;1.10;;
35380;SDS011;21486;51.916;8.378;2022-09-09T09:03:05;3.45;;;0.85;;
35380;SDS011;21486;51.916;8.378;2022-09-09T09:05:37;5.70;;;1.10;;
35380;SDS011;21486;51.916;8.378;2022-09-09T09:13:02;5.07;;;1.17;;
35380;SDS011;21486;51.916;8.378;2022-09-09T09:15:37;7.50;;;1.20;;
35380;SDS011;21486;51.916;8.378;2022-09-09T09:18:04;6.57;;;1.27;;
35380;SDS011;21486;51.916;8.378;2022-09-09T09:20:42;4.03;;;1.17;;
35380;SDS011;21486;51.916;8.378;2022-09-09T09:23:23;6.93;;;1.30;;
35380;SDS011;21486;51.916;8.378;2022-09-09T09:25:50;2.92;;;1.20;;
35380;SDS011;21486;51.916;8.378;2022-09-09T09:28:17;4.93;;;1.00;;
35380;SDS011;21486;51.916;8.378;2022-09-09T09:30:50;7.38;;;1.40;;
35380;SDS011;21486;51.916;8.378;2022-09-09T09:33:20;7.97;;;1.23;;
35380;SDS011;21486;51.916;8.378;2022-09-09T09:35:48;6.13;;;1.25;;
35380;SDS011;21486;51.916;8.378;2022-09-09T09:38:16;4.43;;;1.10;;
35380;SDS011;21486;51.916;8.378;2022-09-09T09:40:52;3.75;;;0.93;;
35380;SDS011;21486;51.916;8.378;2022-09-09T09:43:29;8.88;;;1.58;;
35380;SDS011;21486;51.916;8.378;2022-09-09T09:45:55;4.22;;;0.82;;
35380;SDS011;21486;51.916;8.378;2022-09-09T09:48:25;3.97;;;0.98;;
35380;SDS011;21486;51.916;8.378;2022-09-09T09:55:56;7.68;;;1.10;;
35380;SDS011;21486;51.916;8.378;2022-09-09T09:58:23;5.38;;;1.15;;
35380;SDS011;21486;51.916;8.378;2022-09-09T10:08:12;9.95;;;1.30;;
35380;SDS011;21486;51.916;8.378;2022-09-09T10:25:58;5.38;;;1.17;;
35380;SDS011;21486;51.916;8.378;2022-09-09T10:48:08;8.40;;;1.25;;
35380;SDS011;21486;51.916;8.378;2022-09-09T10:51:00;5.45;;;1.05;;
35380;SDS011;21486;51.916;8.378;2022-09-09T10:56:00;4.57;;;1.27;;
35380;SDS011;21486;51.916;8.378;2022-09-09T10:58:34;7.25;;;1.25;;
35380;SDS011;21486;51.916;8.378;2022-09-09T11:10:52;8.88;;;1.77;;
35380;SDS011;21486;51.916;8.378;2022-09-09T11:18:31;5.00;;;1.25;;
35380;SDS011;21486;51.916;8.378;2022-09-09T11:21:02;5.55;;;1.30;;
35380;SDS011;21486;51.916;8.378;2022-09-09T11:38:46;4.00;;;1.00;;
35380;SDS011;21486;51.916;8.378;2022-09-09T11:41:12;8.38;;;1.20;;
35380;SDS011;21486;51.916;8.378;2022-09-09T11:43:45;7.18;;;1.40;;
35380;SDS011;21486;51.916;8.378;2022-09-09T11:46:13;7.80;;;1.08;;
35380;SDS011;21486;51.916;8.378;2022-09-09T11:48:44;4.90;;;0.90;;
35380;SDS011;21486;51.916;8.378;2022-09-09T11:53:50;5.75;;;0.85;;
35380;SDS011;21486;51.916;8.378;2022-09-09T11:56:30;4.35;;;1.13;;
35380;SDS011;21486;51.916;8.378;2022-09-09T12:01:30;3.90;;;0.80;;
35380;SDS011;21486;51.916;8.378;2022-09-09T12:06:53;2.90;;;0.90;;
35380;SDS011;21486;51.916;8.378;2022-09-09T12:11:49;6.50;;;0.90;;
35380;SDS011;21486;51.916;8.378;2022-09-09T12:14:19;2.25;;;0.77;;
35380;SDS011;21486;51.916;8.378;2022-09-09T12:16:46;5.57;;;0.75;;
35380;SDS011;21486;51.916;8.378;2022-09-09T12:19:14;2.30;;;0.80;;
35380;SDS011;21486;51.916;8.378;2022-09-09T12:24:10;2.65;;;0.90;;
35380;SDS011;21486;51.916;8.378;2022-09-09T12:26:38;4.35;;;1.00;;
35380;SDS011;21486;51.916;8.378;2022-09-09T12:34:17;6.38;;;1.05;;
35380;SDS011;21486;51.916;8.378;2022-09-09T12:36:45;3.00;;;1.33;;
35380;SDS011;21486;51.916;8.378;2022-09-09T12:39:18;5.85;;;1.20;;
35380;SDS011;21486;51.916;8.378;2022-09-09T12:41:51;3.67;;;1.00;;
35380;SDS011;21486;51.916;8.378;2022-09-09T12:46:50;4.68;;;1.05;;
35380;SDS011;21486;51.916;8.378;2022-09-09T12:49:35;3.08;;;0.85;;
35380;SDS011;21486;51.916;8.378;2022-09-09T12:52:13;3.05;;;0.93;;
35380;SDS011;21486;51.916;8.378;2022-09-09T12:54:43;6.05;;;1.00;;
35380;SDS011;21486;51.916;8.378;2022-09-09T12:57:11;3.70;;;0.90;;
35380;SDS011;21486;51.916;8.378;2022-09-09T12:59:39;4.18;;;0.90;;
35380;SDS011;21486;51.916;8.378;2022-09-09T13:02:14;4.65;;;1.17;;
35380;SDS011;21486;51.916;8.378;2022-09-09T13:04:42;6.10;;;1.13;;
35380;SDS011;21486;51.916;8.378;2022-09-09T13:07:09;2.97;;;1.02;;
35380;SDS011;21486;51.916;8.378;2022-09-09T13:12:02;4.97;;;1.45;;
35380;SDS011;21486;51.916;8.378;2022-09-09T13:14:33;5.88;;;0.93;;
35380;SDS011;21486;51.916;8.378;2022-09-09T13:17:03;2.75;;;1.20;;
35380;SDS011;21486;51.916;8.378;2022-09-09T13:19:31;5.43;;;0.98;;
35380;SDS011;21486;51.916;8.378;2022-09-09T13:21:57;3.58;;;1.23;;
35380;SDS011;21486;51.916;8.378;2022-09-09T13:24:31;4.07;;;0.82;;
35380;SDS011;21486;51.916;8.378;2022-09-09T13:29:23;2.88;;;0.80;;
35380;SDS011;21486;51.916;8.378;2022-09-09T13:31:50;5.28;;;1.10;;
35380;SDS011;21486;51.916;8.378;2022-09-09T13:34:30;2.00;;;0.80;;
35380;SDS011;21486;51.916;8.378;2022-09-09T13:36:59;1.70;;;0.70;;
35380;SDS011;21486;51.916;8.378;2022-09-09T13:39:27;8.57;;;1.23;;
35380;SDS011;21486;51.916;8.378;2022-09-09T13:41:53;2.55;;;0.80;;
35380;SDS011;21486;51.916;8.378;2022-09-09T13:51:41;2.67;;;0.80;;
35380;SDS011;21486;51.916;8.378;2022-09-09T13:54:09;2.42;;;0.75;;
35380;SDS011;21486;51.916;8.378;2022-09-09T13:56:36;8.38;;;1.20;;
35380;SDS011;21486;51.916;8.378;2022-09-09T13:59:03;5.70;;;1.63;;
35380;SDS011;21486;51.916;8.378;2022-09-09T14:01:31;4.53;;;0.70;;
35380;SDS011;21486;51.916;8.378;2022-09-09T14:03:59;2.60;;;1.00;;
35380;SDS011;21486;51.916;8.378;2022-09-09T14:06:25;5.15;;;0.75;;
35380;SDS011;21486;51.916;8.378;2022-09-09T14:08:52;1.98;;;0.75;;
35380;SDS011;21486;51.916;8.378;2022-09-09T14:11:19;2.58;;;0.80;;
35380;SDS011;21486;51.916;8.378;2022-09-09T14:13:46;3.33;;;0.80;;
35380;SDS011;21486;51.916;8.378;2022-09-09T14:16:12;1.80;;;0.82;;
35380;SDS011;21486;51.916;8.378;2022-09-09T14:18:38;1.92;;;0.88;;
35380;SDS011;21486;51.916;8.378;2022-09-09T14:21:05;5.05;;;1.00;;
35380;SDS011;21486;51.916;8.378;2022-09-09T14:23:31;5.50;;;1.30;;
35380;SDS011;21486;51.916;8.378;2022-09-09T14:25:57;3.78;;;0.88;;
35380;SDS011;21486;51.916;8.378;2022-09-09T14:28:23;5.90;;;1.25;;
35380;SDS011;21486;51.916;8.378;2022-09-09T14:30:50;2.55;;;0.80;;
35380;SDS011;21486;51.916;8.378;2022-09-09T14:33:16;4.00;;;0.60;;
35380;SDS011;21486;51.916;8.378;2022-09-09T14:35:42;7.78;;;0.82;;
35380;SDS011;21486;51.916;8.378;2022-09-09T14:38:09;6.50;;;0.88;;
35380;SDS011;21486;51.916;8.378;2022-09-09T14:40:36;5.20;;;0.90;;
35380;SDS011;21486;51.916;8.378;2022-09-09T14:43:02;4.88;;;1.00;;
35380;SDS011;21486;51.916;8.378;2022-09-09T14:45:28;6.60;;;1.08;;
35380;SDS011;21486;51.916;8.378;2022-09-09T14:47:54;6.95;;;1.10;;
35380;SDS011;21486;51.916;8.378;2022-09-09T14:50:21;2.28;;;0.85;;
35380;SDS011;21486;51.916;8.378;2022-09-09T14:52:47;3.10;;;0.73;;
35380;SDS011;21486;51.916;8.378;2022-09-09T14:55:13;1.33;;;0.73;;
35380;SDS011;21486;51.916;8.378;2022-09-09T14:57:40;2.97;;;0.75;;
35380;SDS011;21486;51.916;8.378;2022-09-09T15:00:06;2.33;;;0.93;;
35380;SDS011;21486;51.916;8.378;2022-09-09T15:02:33;4.13;;;0.88;;
35380;SDS011;21486;51.916;8.378;2022-09-09T15:04:59;3.67;;;0.90;;
35380;SDS011;21486;51.916;8.378;2022-09-09T15:07:25;5.97;;;1.08;;
35380;SDS011;21486;51.916;8.378;2022-09-09T15:09:52;4.00;;;1.00;;
35380;SDS011;21486;51.916;8.378;2022-09-09T15:12:18;3.60;;;0.90;;
35380;SDS011;21486;51.916;8.378;2022-09-09T15:14:45;4.07;;;0.90;;
35380;SDS011;21486;51.916;8.378;2022-09-09T15:17:11;4.13;;;1.00;;
35380;SDS011;21486;51.916;8.378;2022-09-09T15:19:37;5.60;;;1.10;;
35380;SDS011;21486;51.916;8.378;2022-09-09T15:22:04;5.45;;;1.02;;
35380;SDS011;21486;51.916;8.378;2022-09-09T15:24:31;5.90;;;1.05;;
35380;SDS011;21486;51.916;8.378;2022-09-09T15:26:57;3.35;;;1.20;;
35380;SDS011;21486;51.916;8.378;2022-09-09T15:29:23;3.30;;;0.90;;
35380;SDS011;21486;51.916;8.378;2022-09-09T15:31:49;1.95;;;0.98;;
35380;SDS011;21486;51.916;8.378;2022-09-09T15:34:15;3.58;;;0.60;;
35380;SDS011;21486;51.916;8.378;2022-09-09T15:36:43;4.38;;;1.13;;
35380;SDS011;21486;51.916;8.378;2022-09-09T15:39:10;3.17;;;0.93;;
35380;SDS011;21486;51.916;8.378;2022-09-09T15:41:41;4.60;;;1.00;;
35380;SDS011;21486;51.916;8.378;2022-09-09T15:44:07;3.22;;;0.98;;
35380;SDS011;21486;51.916;8.378;2022-09-09T15:49:03;4.20;;;1.35;;
35380;SDS011;21486;51.916;8.378;2022-09-09T15:51:36;3.50;;;1.15;;
35380;SDS011;21486;51.916;8.378;2022-09-09T15:54:04;2.40;;;0.70;;
35380;SDS011;21486;51.916;8.378;2022-09-09T15:56:30;7.22;;;1.33;;
35380;SDS011;21486;51.916;8.378;2022-09-09T15:58:56;2.85;;;1.10;;
35380;SDS011;21486;51.916;8.378;2022-09-09T16:01:23;4.15;;;0.90;;
35380;SDS011;21486;51.916;8.378;2022-09-09T16:03:50;6.13;;;1.35;;
35380;SDS011;21486;51.916;8.378;2022-09-09T16:06:20;3.20;;;1.48;;
35380;SDS011;21486;51.916;8.378;2022-09-09T16:08:47;8.80;;;2.63;;
35380;SDS011;21486;51.916;8.378;2022-09-09T16:11:16;4.32;;;1.50;;
35380;SDS011;21486;51.916;8.378;2022-09-09T16:13:49;4.67;;;1.63;;
35380;SDS011;21486;51.916;8.378;2022-09-09T16:16:16;5.65;;;1.50;;
35380;SDS011;21486;51.916;8.378;2022-09-09T16:18:48;3.85;;;1.10;;
35380;SDS011;21486;51.916;8.378;2022-09-09T16:23:44;4.18;;;0.80;;
35380;SDS011;21486;51.916;8.378;2022-09-09T16:26:10;2.53;;;1.20;;
35380;SDS011;21486;51.916;8.378;2022-09-09T16:28:37;5.82;;;1.92;;
35380;SDS011;21486;51.916;8.378;2022-09-09T16:31:04;4.85;;;1.00;;
35380;SDS011;21486;51.916;8.378;2022-09-09T16:33:31;3.80;;;1.13;;
35380;SDS011;21486;51.916;8.378;2022-09-09T16:35:57;2.88;;;1.15;;
35380;SDS011;21486;51.916;8.378;2022-09-09T16:38:22;2.25;;;1.30;;
35380;SDS011;21486;51.916;8.378;2022-09-09T16:40:49;11.98;;;1.48;;
35380;SDS011;21486;51.916;8.378;2022-09-09T16:43:15;3.90;;;1.00;;
35380;SDS011;21486;51.916;8.378;2022-09-09T16:48:07;5.00;;;1.50;;
35380;SDS011;21486;51.916;8.378;2022-09-09T18:08:34;5.10;;;1.10;;
35380;SDS011;21486;51.916;8.378;2022-09-09T18:11:03;3.97;;;1.20;;
35380;SDS011;21486;51.916;8.378;2022-09-09T18:13:29;5.35;;;1.00;;
35380;SDS011;21486;51.916;8.378;2022-09-09T18:15:55;4.18;;;0.95;;
35380;SDS011;21486;51.916;8.378;2022-09-09T18:50:00;6.13;;;1.30;;
35380;SDS011;21486;51.916;8.378;2022-09-09T18:52:26;3.60;;;1.10;;
35380;SDS011;21486;51.916;8.378;2022-09-09T18:54:52;2.45;;;1.20;;
35380;SDS011;21486;51.916;8.378;2022-09-09T18:57:18;3.13;;;1.30;;
35380;SDS011;21486;51.916;8.378;2022-09-09T18:59:44;3.83;;;1.30;;
35380;SDS011;21486;51.916;8.378;2022-09-09T19:02:10;2.03;;;1.08;;
35380;SDS011;21486;51.916;8.378;2022-09-09T19:04:36;5.80;;;1.50;;
35380;SDS011;21486;51.916;8.378;2022-09-09T19:07:03;5.53;;;1.70;;
35380;SDS011;21486;51.916;8.378;2022-09-09T19:09:29;4.72;;;1.80;;
35380;SDS011;21486;51.916;8.378;2022-09-09T19:19:20;4.38;;;1.40;;
35380;SDS011;21486;51.916;8.378;2022-09-09T20:29:55;3.72;;;1.60;;
35380;SDS011;21486;51.916;8.378;2022-09-09T20:32:21;2.38;;;1.55;;
35380;SDS011;21486;51.916;8.378;2022-09-09T20:34:48;6.10;;;1.95;;
35380;SDS011;21486;51.916;8.378;2022-09-09T20:37:14;3.25;;;1.35;;
35380;SDS011;21486;51.916;8.378;2022-09-09T20:39:40;2.38;;;1.08;;
35380;SDS011;21486;51.916;8.378;2022-09-09T20:42:06;7.65;;;1.75;;
35380;SDS011;21486;51.916;8.378;2022-09-09T20:44:32;3.95;;;1.38;;
35380;SDS011;21486;51.916;8.378;2022-09-09T20:46:58;3.60;;;1.35;;
35380;SDS011;21486;51.916;8.378;2022-09-09T20:49:30;2.67;;;0.98;;
35380;SDS011;21486;51.916;8.378;2022-09-09T20:51:57;2.35;;;0.93;;
35380;SDS011;21486;51.916;8.378;2022-09-09T20:54:23;1.50;;;1.17;;
35380;SDS011;21486;51.916;8.378;2022-09-09T20:56:50;4.90;;;1.25;;
35380;SDS011;21486;51.916;8.378;2022-09-09T20:59:18;1.77;;;1.13;;
35380;SDS011;21486;51.916;8.378;2022-09-09T21:01:44;3.13;;;1.48;;
35380;SDS011;21486;51.916;8.378;2022-09-09T21:04:11;3.67;;;1.75;;